sensor_id;sensor_type;location;lat;lon;timestamp;temperature;humidity
10386;DHT22;34307;51.332;12.334;2022-07-05T00:02:00;18.10;50.00
10386;DHT22;34307;51.332;12.334;2022-07-05T00:04:29;18.10;50.20
10386;DHT22;34307;51.332;12.334;2022-07-05T00:06:57;18.00;51.00
10386;DHT22;34307;51.332;12.334;2022-07-05T00:09:43;17.90;52.10
10386;DHT22;34307;51.332;12.334;2022-07-05T00:12:11;17.70;53.00
10386;DHT22;34307;51.332;12.334;2022-07-05T00:14:43;17.70;52.00
10386;DHT22;34307;51.332;12.334;2022-07-05T00:17:12;17.70;51.80
10386;DHT22;34307;51.332;12.334;2022-07-05T00:19:41;17.70;51.50
10386;DHT22;34307;51.332;12.334;2022-07-05T00:22:10;17.70;50.90
10386;DHT22;34307;51.332;12.334;2022-07-05T00:24:38;17.90;48.90
10386;DHT22;34307;51.332;12.334;2022-07-05T00:27:08;17.90;48.70
10386;DHT22;34307;51.332;12.334;2022-07-05T00:29:36;17.80;48.50
10386;DHT22;34307;51.332;12.334;2022-07-05T00:32:06;17.70;49.10
10386;DHT22;34307;51.332;12.334;2022-07-05T00:34:35;17.50;50.10
10386;DHT22;34307;51.332;12.334;2022-07-05T00:37:03;17.50;51.10
10386;DHT22;34307;51.332;12.334;2022-07-05T00:39:31;17.50;50.60
10386;DHT22;34307;51.332;12.334;2022-07-05T00:42:00;17.50;54.80
10386;DHT22;34307;51.332;12.334;2022-07-05T00:44:29;17.50;57.10
10386;DHT22;34307;51.332;12.334;2022-07-05T00:46:58;17.40;58.10
10386;DHT22;34307;51.332;12.334;2022-07-05T00:49:28;17.40;57.70
10386;DHT22;34307;51.332;12.334;2022-07-05T00:51:56;17.30;58.10
10386;DHT22;34307;51.332;12.334;2022-07-05T00:54:44;17.20;59.40
10386;DHT22;34307;51.332;12.334;2022-07-05T00:57:13;17.10;60.30
10386;DHT22;34307;51.332;12.334;2022-07-05T00:59:42;17.20;59.00
10386;DHT22;34307;51.332;12.334;2022-07-05T01:02:10;17.10;59.00
10386;DHT22;34307;51.332;12.334;2022-07-05T01:04:46;17.20;59.80
10386;DHT22;34307;51.332;12.334;2022-07-05T01:07:17;17.20;60.80
10386;DHT22;34307;51.332;12.334;2022-07-05T01:09:45;17.20;61.00
10386;DHT22;34307;51.332;12.334;2022-07-05T01:12:14;17.20;60.40
10386;DHT22;34307;51.332;12.334;2022-07-05T01:14:43;17.20;58.90
10386;DHT22;34307;51.332;12.334;2022-07-05T01:17:13;17.10;60.20
10386;DHT22;34307;51.332;12.334;2022-07-05T01:19:42;17.00;60.00
10386;DHT22;34307;51.332;12.334;2022-07-05T01:22:16;17.10;59.60
10386;DHT22;34307;51.332;12.334;2022-07-05T01:24:49;17.20;58.50
10386;DHT22;34307;51.332;12.334;2022-07-05T01:27:18;17.10;59.60
10386;DHT22;34307;51.332;12.334;2022-07-05T01:29:46;17.00;61.10
10386;DHT22;34307;51.332;12.334;2022-07-05T01:32:15;16.90;61.90
10386;DHT22;34307;51.332;12.334;2022-07-05T01:34:43;16.90;63.20
10386;DHT22;34307;51.332;12.334;2022-07-05T01:37:11;16.90;63.10
10386;DHT22;34307;51.332;12.334;2022-07-05T01:39:40;17.00;63.10
10386;DHT22;34307;51.332;12.334;2022-07-05T01:42:09;17.00;62.70
10386;DHT22;34307;51.332;12.334;2022-07-05T01:44:38;16.90;64.90
10386;DHT22;34307;51.332;12.334;2022-07-05T01:47:07;16.80;66.00
10386;DHT22;34307;51.332;12.334;2022-07-05T01:49:39;16.80;66.90
10386;DHT22;34307;51.332;12.334;2022-07-05T01:52:10;16.70;68.70
10386;DHT22;34307;51.332;12.334;2022-07-05T01:54:39;16.60;71.20
10386;DHT22;34307;51.332;12.334;2022-07-05T01:57:10;16.50;72.60
10386;DHT22;34307;51.332;12.334;2022-07-05T01:59:38;16.50;73.90
10386;DHT22;34307;51.332;12.334;2022-07-05T02:02:08;16.40;74.90
10386;DHT22;34307;51.332;12.334;2022-07-05T02:04:37;16.30;77.30
10386;DHT22;34307;51.332;12.334;2022-07-05T02:07:05;16.30;78.80
10386;DHT22;34307;51.332;12.334;2022-07-05T02:09:35;16.20;82.00
10386;DHT22;34307;51.332;12.334;2022-07-05T02:12:07;16.20;85.50
10386;DHT22;34307;51.332;12.334;2022-07-05T02:14:36;16.20;87.10
10386;DHT22;34307;51.332;12.334;2022-07-05T02:17:04;16.10;90.00
10386;DHT22;34307;51.332;12.334;2022-07-05T02:19:34;16.20;90.30
10386;DHT22;34307;51.332;12.334;2022-07-05T02:22:03;16.10;92.50
10386;DHT22;34307;51.332;12.334;2022-07-05T02:24:31;16.10;92.90
10386;DHT22;34307;51.332;12.334;2022-07-05T02:27:00;16.10;93.40
10386;DHT22;34307;51.332;12.334;2022-07-05T02:29:28;16.10;94.60
10386;DHT22;34307;51.332;12.334;2022-07-05T02:31:58;16.10;94.40
10386;DHT22;34307;51.332;12.334;2022-07-05T02:34:27;16.10;95.70
10386;DHT22;34307;51.332;12.334;2022-07-05T02:36:55;16.00;96.40
10386;DHT22;34307;51.332;12.334;2022-07-05T02:39:23;15.90;98.30
10386;DHT22;34307;51.332;12.334;2022-07-05T02:41:52;16.00;97.90
10386;DHT22;34307;51.332;12.334;2022-07-05T02:44:20;15.90;98.80
10386;DHT22;34307;51.332;12.334;2022-07-05T02:46:48;15.70;99.50
10386;DHT22;34307;51.332;12.334;2022-07-05T02:49:17;15.70;99.90
10386;DHT22;34307;51.332;12.334;2022-07-05T02:51:46;15.60;99.90
10386;DHT22;34307;51.332;12.334;2022-07-05T02:54:14;15.50;99.90
10386;DHT22;34307;51.332;12.334;2022-07-05T02:56:42;15.50;99.90
10386;DHT22;34307;51.332;12.334;2022-07-05T02:59:10;15.50;99.90
10386;DHT22;34307;51.332;12.334;2022-07-05T03:01:38;15.40;99.90
10386;DHT22;34307;51.332;12.334;2022-07-05T03:04:07;15.40;99.90
10386;DHT22;34307;51.332;12.334;2022-07-05T03:06:38;15.40;99.90
10386;DHT22;34307;51.332;12.334;2022-07-05T03:09:06;15.40;99.90
10386;DHT22;34307;51.332;12.334;2022-07-05T03:11:34;15.40;99.90
10386;DHT22;34307;51.332;12.334;2022-07-05T03:14:03;15.50;99.90
10386;DHT22;34307;51.332;12.334;2022-07-05T03:16:31;15.60;99.90
10386;DHT22;34307;51.332;12.334;2022-07-05T03:19:00;15.60;99.90
10386;DHT22;34307;51.332;12.334;2022-07-05T03:21:28;15.60;99.50
10386;DHT22;34307;51.332;12.334;2022-07-05T03:23:58;15.60;99.30
10386;DHT22;34307;51.332;12.334;2022-07-05T03:26:26;15.70;98.50
10386;DHT22;34307;51.332;12.334;2022-07-05T03:28:54;15.60;99.20
10386;DHT22;34307;51.332;12.334;2022-07-05T03:31:22;15.60;98.90
10386;DHT22;34307;51.332;12.334;2022-07-05T03:33:51;15.50;99.40
10386;DHT22;34307;51.332;12.334;2022-07-05T03:36:19;15.50;99.10
10386;DHT22;34307;51.332;12.334;2022-07-05T03:38:47;15.50;98.40
10386;DHT22;34307;51.332;12.334;2022-07-05T03:41:16;15.50;98.80
10386;DHT22;34307;51.332;12.334;2022-07-05T03:43:44;15.50;98.90
10386;DHT22;34307;51.332;12.334;2022-07-05T03:46:13;15.50;99.60
10386;DHT22;34307;51.332;12.334;2022-07-05T03:48:41;15.50;99.60
10386;DHT22;34307;51.332;12.334;2022-07-05T03:51:09;15.50;99.20
10386;DHT22;34307;51.332;12.334;2022-07-05T03:53:37;15.50;99.40
10386;DHT22;34307;51.332;12.334;2022-07-05T03:56:06;15.40;99.70
10386;DHT22;34307;51.332;12.334;2022-07-05T03:58:38;15.50;99.30
10386;DHT22;34307;51.332;12.334;2022-07-05T04:01:07;15.50;99.70
10386;DHT22;34307;51.332;12.334;2022-07-05T04:03:36;15.50;99.90
10386;DHT22;34307;51.332;12.334;2022-07-05T04:06:07;15.50;99.90
10386;DHT22;34307;51.332;12.334;2022-07-05T04:08:36;15.50;99.80
10386;DHT22;34307;51.332;12.334;2022-07-05T04:11:05;15.40;99.90
10386;DHT22;34307;51.332;12.334;2022-07-05T04:13:34;15.50;99.90
10386;DHT22;34307;51.332;12.334;2022-07-05T04:16:04;15.50;99.90
10386;DHT22;34307;51.332;12.334;2022-07-05T04:18:32;15.50;99.90
10386;DHT22;34307;51.332;12.334;2022-07-05T04:21:01;15.50;99.90
10386;DHT22;34307;51.332;12.334;2022-07-05T04:23:32;15.40;99.90
10386;DHT22;34307;51.332;12.334;2022-07-05T04:26:00;15.40;99.90
10386;DHT22;34307;51.332;12.334;2022-07-05T04:28:28;15.40;99.90
10386;DHT22;34307;51.332;12.334;2022-07-05T04:30:59;15.50;99.90
10386;DHT22;34307;51.332;12.334;2022-07-05T04:33:28;15.50;99.90
10386;DHT22;34307;51.332;12.334;2022-07-05T04:35:57;15.50;99.90
10386;DHT22;34307;51.332;12.334;2022-07-05T04:38:25;15.50;99.90
10386;DHT22;34307;51.332;12.334;2022-07-05T04:40:53;15.50;99.90
10386;DHT22;34307;51.332;12.334;2022-07-05T04:43:21;15.50;99.90
10386;DHT22;34307;51.332;12.334;2022-07-05T04:45:49;15.60;99.90
10386;DHT22;34307;51.332;12.334;2022-07-05T04:48:22;15.70;99.90
10386;DHT22;34307;51.332;12.334;2022-07-05T04:50:51;15.80;99.90
10386;DHT22;34307;51.332;12.334;2022-07-05T04:53:20;15.70;99.90
10386;DHT22;34307;51.332;12.334;2022-07-05T04:55:48;15.70;99.90
10386;DHT22;34307;51.332;12.334;2022-07-05T04:58:16;15.60;99.90
10386;DHT22;34307;51.332;12.334;2022-07-05T05:00:44;15.60;99.90
10386;DHT22;34307;51.332;12.334;2022-07-05T05:03:12;15.70;99.90
10386;DHT22;34307;51.332;12.334;2022-07-05T05:05:40;15.70;99.90
10386;DHT22;34307;51.332;12.334;2022-07-05T05:08:11;15.70;99.90
10386;DHT22;34307;51.332;12.334;2022-07-05T05:10:39;15.60;99.90
10386;DHT22;34307;51.332;12.334;2022-07-05T05:13:07;15.60;99.90
10386;DHT22;34307;51.332;12.334;2022-07-05T05:15:35;15.60;99.90
10386;DHT22;34307;51.332;12.334;2022-07-05T05:18:04;15.70;99.90
10386;DHT22;34307;51.332;12.334;2022-07-05T05:20:32;15.70;99.90
10386;DHT22;34307;51.332;12.334;2022-07-05T05:23:06;15.80;99.90
10386;DHT22;34307;51.332;12.334;2022-07-05T05:25:35;15.80;99.90
10386;DHT22;34307;51.332;12.334;2022-07-05T05:28:04;15.80;99.90
10386;DHT22;34307;51.332;12.334;2022-07-05T05:30:32;15.90;99.90
10386;DHT22;34307;51.332;12.334;2022-07-05T05:33:00;15.90;99.90
10386;DHT22;34307;51.332;12.334;2022-07-05T05:35:28;16.10;99.90
10386;DHT22;34307;51.332;12.334;2022-07-05T05:37:57;16.10;99.90
10386;DHT22;34307;51.332;12.334;2022-07-05T05:40:26;16.20;99.90
10386;DHT22;34307;51.332;12.334;2022-07-05T05:42:56;16.20;99.90
10386;DHT22;34307;51.332;12.334;2022-07-05T05:45:25;16.20;99.90
10386;DHT22;34307;51.332;12.334;2022-07-05T05:47:55;16.30;99.90
10386;DHT22;34307;51.332;12.334;2022-07-05T05:50:27;16.20;99.90
10386;DHT22;34307;51.332;12.334;2022-07-05T05:52:55;16.20;99.90
10386;DHT22;34307;51.332;12.334;2022-07-05T05:55:25;16.30;99.90
10386;DHT22;34307;51.332;12.334;2022-07-05T05:57:53;16.40;99.90
10386;DHT22;34307;51.332;12.334;2022-07-05T06:00:23;16.50;99.90
10386;DHT22;34307;51.332;12.334;2022-07-05T06:02:51;16.60;99.90
10386;DHT22;34307;51.332;12.334;2022-07-05T06:05:19;16.50;99.90
10386;DHT22;34307;51.332;12.334;2022-07-05T06:07:49;16.70;99.90
10386;DHT22;34307;51.332;12.334;2022-07-05T06:10:18;16.90;99.90
10386;DHT22;34307;51.332;12.334;2022-07-05T06:12:48;17.10;99.90
10386;DHT22;34307;51.332;12.334;2022-07-05T06:15:16;17.20;99.90
10386;DHT22;34307;51.332;12.334;2022-07-05T06:17:46;17.30;99.90
10386;DHT22;34307;51.332;12.334;2022-07-05T06:20:18;17.40;99.90
10386;DHT22;34307;51.332;12.334;2022-07-05T06:22:46;17.50;99.50
10386;DHT22;34307;51.332;12.334;2022-07-05T06:25:15;17.50;99.70
10386;DHT22;34307;51.332;12.334;2022-07-05T06:27:50;17.70;98.20
10386;DHT22;34307;51.332;12.334;2022-07-05T06:30:20;17.90;96.90
10386;DHT22;34307;51.332;12.334;2022-07-05T06:32:50;18.00;94.90
10386;DHT22;34307;51.332;12.334;2022-07-05T06:35:18;18.20;94.50
10386;DHT22;34307;51.332;12.334;2022-07-05T06:37:49;18.50;92.50
10386;DHT22;34307;51.332;12.334;2022-07-05T06:40:19;18.70;89.80
10386;DHT22;34307;51.332;12.334;2022-07-05T06:42:47;18.60;90.10
10386;DHT22;34307;51.332;12.334;2022-07-05T06:45:15;18.70;90.30
10386;DHT22;34307;51.332;12.334;2022-07-05T06:47:44;18.90;87.30
10386;DHT22;34307;51.332;12.334;2022-07-05T06:50:13;18.70;87.50
10386;DHT22;34307;51.332;12.334;2022-07-05T06:52:41;18.90;88.30
10386;DHT22;34307;51.332;12.334;2022-07-05T06:55:09;18.90;86.90
10386;DHT22;34307;51.332;12.334;2022-07-05T06:57:37;19.00;86.20
10386;DHT22;34307;51.332;12.334;2022-07-05T07:00:06;19.10;82.80
10386;DHT22;34307;51.332;12.334;2022-07-05T07:02:54;19.00;83.00
10386;DHT22;34307;51.332;12.334;2022-07-05T07:05:44;19.10;84.70
10386;DHT22;34307;51.332;12.334;2022-07-05T07:08:29;19.30;82.70
10386;DHT22;34307;51.332;12.334;2022-07-05T07:11:14;19.50;80.40
10386;DHT22;34307;51.332;12.334;2022-07-05T07:13:43;19.40;78.40
10386;DHT22;34307;51.332;12.334;2022-07-05T07:16:11;19.50;78.80
10386;DHT22;34307;51.332;12.334;2022-07-05T07:18:39;19.50;80.70
10386;DHT22;34307;51.332;12.334;2022-07-05T07:21:29;19.60;79.20
10386;DHT22;34307;51.332;12.334;2022-07-05T07:23:57;19.50;77.20
10386;DHT22;34307;51.332;12.334;2022-07-05T07:26:25;19.60;76.90
10386;DHT22;34307;51.332;12.334;2022-07-05T07:28:53;19.70;76.30
10386;DHT22;34307;51.332;12.334;2022-07-05T07:31:21;19.80;76.70
10386;DHT22;34307;51.332;12.334;2022-07-05T07:33:49;19.70;76.70
10386;DHT22;34307;51.332;12.334;2022-07-05T07:36:17;19.80;77.30
10386;DHT22;34307;51.332;12.334;2022-07-05T07:38:47;20.00;77.70
10386;DHT22;34307;51.332;12.334;2022-07-05T07:41:14;20.10;76.60
10386;DHT22;34307;51.332;12.334;2022-07-05T07:43:42;20.30;75.00
10386;DHT22;34307;51.332;12.334;2022-07-05T07:46:10;20.40;74.30
10386;DHT22;34307;51.332;12.334;2022-07-05T07:48:38;20.40;74.30
10386;DHT22;34307;51.332;12.334;2022-07-05T07:51:06;20.50;74.00
10386;DHT22;34307;51.332;12.334;2022-07-05T07:53:34;20.50;71.60
10386;DHT22;34307;51.332;12.334;2022-07-05T07:56:04;20.40;69.80
10386;DHT22;34307;51.332;12.334;2022-07-05T07:58:32;20.30;68.20
10386;DHT22;34307;51.332;12.334;2022-07-05T08:01:00;20.40;68.60
10386;DHT22;34307;51.332;12.334;2022-07-05T08:03:28;20.70;64.10
10386;DHT22;34307;51.332;12.334;2022-07-05T08:05:56;20.80;63.10
10386;DHT22;34307;51.332;12.334;2022-07-05T08:08:24;21.20;62.20
10386;DHT22;34307;51.332;12.334;2022-07-05T08:10:52;22.10;57.40
10386;DHT22;34307;51.332;12.334;2022-07-05T08:13:22;22.90;51.80
10386;DHT22;34307;51.332;12.334;2022-07-05T08:15:50;23.50;46.50
10386;DHT22;34307;51.332;12.334;2022-07-05T08:18:18;23.80;40.00
10386;DHT22;34307;51.332;12.334;2022-07-05T08:21:03;23.70;34.70
10386;DHT22;34307;51.332;12.334;2022-07-05T08:23:49;23.80;34.80
10386;DHT22;34307;51.332;12.334;2022-07-05T08:26:17;23.00;27.00
10386;DHT22;34307;51.332;12.334;2022-07-05T08:28:46;22.70;30.50
10386;DHT22;34307;51.332;12.334;2022-07-05T08:31:34;22.30;37.20
10386;DHT22;34307;51.332;12.334;2022-07-05T08:34:03;23.00;35.00
10386;DHT22;34307;51.332;12.334;2022-07-05T08:36:31;23.50;32.00
10386;DHT22;34307;51.332;12.334;2022-07-05T08:38:59;23.70;27.30
10386;DHT22;34307;51.332;12.334;2022-07-05T08:41:29;23.30;25.50
10386;DHT22;34307;51.332;12.334;2022-07-05T08:44:00;23.40;24.00
10386;DHT22;34307;51.332;12.334;2022-07-05T08:46:30;23.60;21.70
10386;DHT22;34307;51.332;12.334;2022-07-05T08:49:00;23.80;19.00
10386;DHT22;34307;51.332;12.334;2022-07-05T08:51:39;24.20;16.30
10386;DHT22;34307;51.332;12.334;2022-07-05T08:54:08;23.70;15.50
10386;DHT22;34307;51.332;12.334;2022-07-05T08:56:36;24.10;15.60
10386;DHT22;34307;51.332;12.334;2022-07-05T08:59:26;23.70;15.60
10386;DHT22;34307;51.332;12.334;2022-07-05T09:01:56;23.80;15.80
10386;DHT22;34307;51.332;12.334;2022-07-05T09:04:29;24.30;13.00
10386;DHT22;34307;51.332;12.334;2022-07-05T09:07:03;24.40;6.30
10386;DHT22;34307;51.332;12.334;2022-07-05T09:09:38;23.90;8.80
10386;DHT22;34307;51.332;12.334;2022-07-05T09:12:12;24.50;8.80
10386;DHT22;34307;51.332;12.334;2022-07-05T09:14:57;25.30;5.50
10386;DHT22;34307;51.332;12.334;2022-07-05T09:17:26;25.10;5.20
10386;DHT22;34307;51.332;12.334;2022-07-05T09:20:09;25.00;4.80
10386;DHT22;34307;51.332;12.334;2022-07-05T09:22:46;24.40;3.60
10386;DHT22;34307;51.332;12.334;2022-07-05T09:25:16;23.70;8.10
10386;DHT22;34307;51.332;12.334;2022-07-05T09:27:53;23.20;10.00
10386;DHT22;34307;51.332;12.334;2022-07-05T09:30:30;22.90;11.10
10386;DHT22;34307;51.332;12.334;2022-07-05T09:33:07;23.00;12.90
10386;DHT22;34307;51.332;12.334;2022-07-05T09:35:37;23.30;10.80
10386;DHT22;34307;51.332;12.334;2022-07-05T09:38:15;23.80;9.50
10386;DHT22;34307;51.332;12.334;2022-07-05T09:40:46;23.50;8.90
10386;DHT22;34307;51.332;12.334;2022-07-05T09:43:17;23.90;7.10
10386;DHT22;34307;51.332;12.334;2022-07-05T09:45:57;24.30;5.10
10386;DHT22;34307;51.332;12.334;2022-07-05T09:48:26;24.80;1.20
10386;DHT22;34307;51.332;12.334;2022-07-05T09:51:07;24.70;1.00
10386;DHT22;34307;51.332;12.334;2022-07-05T09:53:58;24.30;1.30
10386;DHT22;34307;51.332;12.334;2022-07-05T09:56:29;24.10;1.00
10386;DHT22;34307;51.332;12.334;2022-07-05T09:59:12;23.90;1.00
10386;DHT22;34307;51.332;12.334;2022-07-05T10:01:46;24.00;1.90
10386;DHT22;34307;51.332;12.334;2022-07-05T10:04:16;23.80;2.40
10386;DHT22;34307;51.332;12.334;2022-07-05T10:06:47;23.50;2.00
10386;DHT22;34307;51.332;12.334;2022-07-05T10:09:16;23.70;1.00
10386;DHT22;34307;51.332;12.334;2022-07-05T10:11:47;24.40;1.00
10386;DHT22;34307;51.332;12.334;2022-07-05T10:14:18;25.30;1.00
10386;DHT22;34307;51.332;12.334;2022-07-05T10:16:53;26.40;1.00
10386;DHT22;34307;51.332;12.334;2022-07-05T10:19:29;27.00;1.00
10386;DHT22;34307;51.332;12.334;2022-07-05T10:22:00;26.50;1.00
10386;DHT22;34307;51.332;12.334;2022-07-05T10:24:46;25.10;1.00
10386;DHT22;34307;51.332;12.334;2022-07-05T10:27:17;24.60;1.00
10386;DHT22;34307;51.332;12.334;2022-07-05T10:29:45;24.60;1.00
10386;DHT22;34307;51.332;12.334;2022-07-05T10:32:16;24.80;1.00
10386;DHT22;34307;51.332;12.334;2022-07-05T10:34:44;25.20;1.00
10386;DHT22;34307;51.332;12.334;2022-07-05T10:37:23;25.40;1.00
10386;DHT22;34307;51.332;12.334;2022-07-05T10:39:53;25.40;1.00
10386;DHT22;34307;51.332;12.334;2022-07-05T10:42:21;25.30;1.00
10386;DHT22;34307;51.332;12.334;2022-07-05T10:44:50;25.00;1.00
10386;DHT22;34307;51.332;12.334;2022-07-05T10:47:21;24.40;1.00
10386;DHT22;34307;51.332;12.334;2022-07-05T10:50:00;24.80;1.00
10386;DHT22;34307;51.332;12.334;2022-07-05T10:52:29;25.50;1.00
10386;DHT22;34307;51.332;12.334;2022-07-05T10:55:22;25.90;1.00
10386;DHT22;34307;51.332;12.334;2022-07-05T10:58:22;26.70;1.00
10386;DHT22;34307;51.332;12.334;2022-07-05T11:03:55;26.90;1.00
10386;DHT22;34307;51.332;12.334;2022-07-05T11:06:25;26.50;1.00
10386;DHT22;34307;51.332;12.334;2022-07-05T11:09:15;26.70;1.00
10386;DHT22;34307;51.332;12.334;2022-07-05T11:11:45;26.90;1.00
10386;DHT22;34307;51.332;12.334;2022-07-05T11:14:39;26.30;1.00
10386;DHT22;34307;51.332;12.334;2022-07-05T11:17:18;25.50;1.00
10386;DHT22;34307;51.332;12.334;2022-07-05T11:20:29;25.30;1.00
10386;DHT22;34307;51.332;12.334;2022-07-05T11:23:11;25.70;1.00
10386;DHT22;34307;51.332;12.334;2022-07-05T11:25:45;25.50;1.00
10386;DHT22;34307;51.332;12.334;2022-07-05T11:28:18;26.20;1.00
10386;DHT22;34307;51.332;12.334;2022-07-05T11:30:54;26.50;1.00
10386;DHT22;34307;51.332;12.334;2022-07-05T11:33:41;26.80;1.00
10386;DHT22;34307;51.332;12.334;2022-07-05T11:36:22;27.20;1.00
10386;DHT22;34307;51.332;12.334;2022-07-05T11:39:10;27.00;1.00
10386;DHT22;34307;51.332;12.334;2022-07-05T11:41:43;26.30;1.00
10386;DHT22;34307;51.332;12.334;2022-07-05T11:44:12;26.10;1.00
10386;DHT22;34307;51.332;12.334;2022-07-05T11:46:42;26.20;1.00
10386;DHT22;34307;51.332;12.334;2022-07-05T11:49:21;26.30;1.00
10386;DHT22;34307;51.332;12.334;2022-07-05T11:51:55;26.30;1.00
10386;DHT22;34307;51.332;12.334;2022-07-05T11:54:24;26.00;1.00
10386;DHT22;34307;51.332;12.334;2022-07-05T11:56:53;25.90;1.00
10386;DHT22;34307;51.332;12.334;2022-07-05T11:59:24;25.80;1.00
10386;DHT22;34307;51.332;12.334;2022-07-05T12:01:52;25.50;1.00
10386;DHT22;34307;51.332;12.334;2022-07-05T12:04:22;25.70;1.00
10386;DHT22;34307;51.332;12.334;2022-07-05T12:06:50;25.70;1.00
10386;DHT22;34307;51.332;12.334;2022-07-05T12:09:25;25.80;1.00
10386;DHT22;34307;51.332;12.334;2022-07-05T12:11:54;26.00;1.00
10386;DHT22;34307;51.332;12.334;2022-07-05T12:14:47;25.50;1.00
10386;DHT22;34307;51.332;12.334;2022-07-05T12:17:17;25.70;1.00
10386;DHT22;34307;51.332;12.334;2022-07-05T12:19:52;26.20;1.00
10386;DHT22;34307;51.332;12.334;2022-07-05T12:22:28;27.10;1.00
10386;DHT22;34307;51.332;12.334;2022-07-05T12:24:58;27.20;1.00
10386;DHT22;34307;51.332;12.334;2022-07-05T12:27:29;27.00;1.00
10386;DHT22;34307;51.332;12.334;2022-07-05T12:29:58;26.60;1.00
10386;DHT22;34307;51.332;12.334;2022-07-05T12:32:32;27.00;1.00
10386;DHT22;34307;51.332;12.334;2022-07-05T12:35:01;27.20;1.00
10386;DHT22;34307;51.332;12.334;2022-07-05T12:37:33;27.50;1.00
10386;DHT22;34307;51.332;12.334;2022-07-05T12:40:05;28.50;1.00
10386;DHT22;34307;51.332;12.334;2022-07-05T12:42:35;28.90;1.00
10386;DHT22;34307;51.332;12.334;2022-07-05T12:45:10;29.20;1.00
10386;DHT22;34307;51.332;12.334;2022-07-05T12:47:49;29.30;1.00
10386;DHT22;34307;51.332;12.334;2022-07-05T12:50:18;28.70;1.00
10386;DHT22;34307;51.332;12.334;2022-07-05T12:53:09;28.50;1.00
10386;DHT22;34307;51.332;12.334;2022-07-05T12:56:00;28.30;1.00
10386;DHT22;34307;51.332;12.334;2022-07-05T12:58:48;28.30;1.00
10386;DHT22;34307;51.332;12.334;2022-07-05T13:01:21;28.40;1.00
10386;DHT22;34307;51.332;12.334;2022-07-05T13:04:01;28.90;1.00
10386;DHT22;34307;51.332;12.334;2022-07-05T13:09:30;29.20;1.00
10386;DHT22;34307;51.332;12.334;2022-07-05T13:12:08;29.40;1.00
10386;DHT22;34307;51.332;12.334;2022-07-05T13:14:38;29.00;1.00
10386;DHT22;34307;51.332;12.334;2022-07-05T13:17:07;28.60;1.00
10386;DHT22;34307;51.332;12.334;2022-07-05T13:19:36;28.40;1.00
10386;DHT22;34307;51.332;12.334;2022-07-05T13:22:04;28.40;1.00
10386;DHT22;34307;51.332;12.334;2022-07-05T13:24:33;29.40;1.00
10386;DHT22;34307;51.332;12.334;2022-07-05T13:27:02;30.10;1.00
10386;DHT22;34307;51.332;12.334;2022-07-05T13:29:33;30.40;1.00
10386;DHT22;34307;51.332;12.334;2022-07-05T13:32:02;29.20;1.00
10386;DHT22;34307;51.332;12.334;2022-07-05T13:34:32;28.70;1.00
10386;DHT22;34307;51.332;12.334;2022-07-05T13:37:03;28.10;1.00
10386;DHT22;34307;51.332;12.334;2022-07-05T13:40:05;28.70;1.00
10386;DHT22;34307;51.332;12.334;2022-07-05T13:46:16;31.00;1.00
10386;DHT22;34307;51.332;12.334;2022-07-05T13:48:44;30.30;1.00
10386;DHT22;34307;51.332;12.334;2022-07-05T13:51:12;29.90;1.00
10386;DHT22;34307;51.332;12.334;2022-07-05T13:53:54;29.30;1.00
10386;DHT22;34307;51.332;12.334;2022-07-05T13:56:23;27.80;1.00
10386;DHT22;34307;51.332;12.334;2022-07-05T13:58:53;26.90;1.00
10386;DHT22;34307;51.332;12.334;2022-07-05T14:01:22;26.90;1.00
10386;DHT22;34307;51.332;12.334;2022-07-05T14:03:53;27.90;1.00
10386;DHT22;34307;51.332;12.334;2022-07-05T14:06:23;28.70;1.00
10386;DHT22;34307;51.332;12.334;2022-07-05T14:08:51;28.80;1.00
10386;DHT22;34307;51.332;12.334;2022-07-05T14:11:20;29.20;1.00
10386;DHT22;34307;51.332;12.334;2022-07-05T14:13:48;29.60;1.00
10386;DHT22;34307;51.332;12.334;2022-07-05T14:16:16;28.70;1.00
10386;DHT22;34307;51.332;12.334;2022-07-05T14:18:46;27.60;1.00
10386;DHT22;34307;51.332;12.334;2022-07-05T14:21:14;27.10;1.00
10386;DHT22;34307;51.332;12.334;2022-07-05T14:23:43;27.20;1.00
10386;DHT22;34307;51.332;12.334;2022-07-05T14:26:11;27.80;1.00
10386;DHT22;34307;51.332;12.334;2022-07-05T14:28:40;28.70;1.00
10386;DHT22;34307;51.332;12.334;2022-07-05T14:31:08;28.30;1.00
10386;DHT22;34307;51.332;12.334;2022-07-05T14:33:37;29.20;1.00
10386;DHT22;34307;51.332;12.334;2022-07-05T14:36:09;29.90;1.00
10386;DHT22;34307;51.332;12.334;2022-07-05T14:38:37;30.40;1.00
10386;DHT22;34307;51.332;12.334;2022-07-05T14:41:05;28.30;1.00
10386;DHT22;34307;51.332;12.334;2022-07-05T14:43:34;27.70;1.00
10386;DHT22;34307;51.332;12.334;2022-07-05T14:46:02;27.50;1.00
10386;DHT22;34307;51.332;12.334;2022-07-05T14:48:31;26.80;1.00
10386;DHT22;34307;51.332;12.334;2022-07-05T14:50:59;26.40;1.00
10386;DHT22;34307;51.332;12.334;2022-07-05T14:53:28;26.60;1.00
10386;DHT22;34307;51.332;12.334;2022-07-05T14:55:57;26.50;1.00
10386;DHT22;34307;51.332;12.334;2022-07-05T14:58:25;27.30;1.00
10386;DHT22;34307;51.332;12.334;2022-07-05T15:00:58;27.50;1.00
10386;DHT22;34307;51.332;12.334;2022-07-05T15:03:26;27.20;1.00
10386;DHT22;34307;51.332;12.334;2022-07-05T15:05:54;27.20;1.00
10386;DHT22;34307;51.332;12.334;2022-07-05T15:08:22;27.40;1.00
10386;DHT22;34307;51.332;12.334;2022-07-05T15:10:53;28.40;1.00
10386;DHT22;34307;51.332;12.334;2022-07-05T15:13:21;29.40;1.00
10386;DHT22;34307;51.332;12.334;2022-07-05T15:15:52;30.70;1.00
10386;DHT22;34307;51.332;12.334;2022-07-05T15:18:20;30.60;1.00
10386;DHT22;34307;51.332;12.334;2022-07-05T15:20:48;31.30;1.00
10386;DHT22;34307;51.332;12.334;2022-07-05T15:23:25;30.60;1.00
10386;DHT22;34307;51.332;12.334;2022-07-05T15:25:56;30.90;1.00
10386;DHT22;34307;51.332;12.334;2022-07-05T15:28:25;31.40;1.00
10386;DHT22;34307;51.332;12.334;2022-07-05T15:30:53;31.70;1.00
10386;DHT22;34307;51.332;12.334;2022-07-05T15:33:22;31.50;1.00
10386;DHT22;34307;51.332;12.334;2022-07-05T15:35:55;30.80;1.00
10386;DHT22;34307;51.332;12.334;2022-07-05T15:38:25;30.80;1.00
10386;DHT22;34307;51.332;12.334;2022-07-05T15:40:53;31.10;1.00
10386;DHT22;34307;51.332;12.334;2022-07-05T15:43:25;31.30;1.00
10386;DHT22;34307;51.332;12.334;2022-07-05T15:45:55;32.00;1.00
10386;DHT22;34307;51.332;12.334;2022-07-05T15:48:23;30.80;1.00
10386;DHT22;34307;51.332;12.334;2022-07-05T15:50:51;29.20;1.00
10386;DHT22;34307;51.332;12.334;2022-07-05T15:53:26;29.30;1.00
10386;DHT22;34307;51.332;12.334;2022-07-05T15:55:56;28.30;1.00
10386;DHT22;34307;51.332;12.334;2022-07-05T15:58:29;27.40;1.00